Latest Coastal Weather Observations for Coolangatta

IDQ60701

Issued at 6:12 pm EST Sunday 4 December 2016 (issued every 10 minutes, with the page automatically refreshed every 10 minutes)

About coastal observations | Map of coastal stations | Coastal observations for QLD | Marine services | Other Formats
Station Details ID: 040717 Name: COOLANGATTA Lat: -28.17 Lon: 153.51 Height: 4.0 m
Data from the previous 72 hours. | See also: Recent months at Coolangatta
Date/Time
EST
Temp
°C
Wind Pressure Rain since
9am
mm
Weather Cloud Vis
km
Sea
Height
m
Swell
Dir  Spd
kts
Gust
kts
hPa Trend Height
m
Period
s
Dir
04/06:00pm 23.7 N 10 14 1013.4 - 0.0 - - - - - - -
04/05:30pm 24.4 N 11 14 1013.4 - 0.0 - - - - - - -
04/05:00pm 24.5 N 11 13 1013.3 - 0.0 - - - - - - -
04/04:30pm 25.7 N 12 16 1013.1 - 0.0 - - - - - - -
04/04:00pm 25.9 N 12 15 1013.2 - 0.0 - - - - - - -
04/03:30pm 25.2 N 14 17 1013.1 - 0.0 - - - - - - -
04/03:00pm 26.4 N 13 17 1013.2 - 0.0 - - - - - - -
04/02:30pm 26.7 N 15 20 1013.3 - 0.0 - - - - - - -
04/02:00pm 26.2 NNE 14 18 1013.5 - 0.0 - - - - - - -
04/01:30pm 26.7 N 15 19 1013.7 - 0.0 - - - - - - -
04/01:00pm 26.4 NNE 15 19 1013.8 - 0.0 - - - - - - -
04/12:30pm 26.6 N 16 20 1014.0 - 0.0 - - - - - - -
04/12:00pm 26.4 N 17 22 1014.3 - 0.0 - Mostly clear - - - - -
04/11:30am 26.9 NNE 14 17 1014.8 - 0.0 - - - - - - -
04/11:00am 26.4 N 14 18 1014.8 - 0.0 - - - - - - -
04/10:30am 26.3 NNE 11 15 1015.4 - 0.0 - - 10 - - - -
04/10:00am 26.1 N 13 16 1015.5 - 0.0 - - 10 - - - -
04/09:30am 26.1 N 13 16 1015.6 - 0.0 - - 10 - - - -
04/09:00am 26.7 N 13 16 1015.5 - 3.2 - - 10 - - - -
04/08:30am 26.9 N 14 19 1015.6 - 3.2 - - 10 - - - -
04/08:00am 25.9 NNW 12 16 1015.6 - 3.2 - - 10 - - - -
04/07:30am 25.6 NNW 9 15 1015.6 - 3.2 - - 10 - - - -
04/07:00am 24.7 NW 4 7 1015.4 - 3.2 - - 10 - - - -
04/06:30am 23.6 NNW 3 5 1015.5 - 3.2 - - 10 - - - -
04/06:00am 22.1 N 4 5 1015.3 - 3.2 - - - - - - -
04/05:30am 21.4 NNE 5 7 1015.2 - 3.2 - - - - - - -
04/05:00am 20.9 SW 4 5 1014.8 - 3.2 - - - - - - -
04/04:30am 21.3 SSW 4 6 1014.5 - 3.2 - - - - - - -
04/04:00am 21.5 S 7 9 1014.3 - 3.2 - - - - - - -
04/03:30am 21.4 SSW 6 9 1014.0 - 3.2 - - - - - - -
04/03:00am 21.3 SSW 5 7 1014.0 - 3.2 - - - - - - -
04/02:30am 21.2 S 2 5 1013.9 - 3.2 - - - - - - -
04/02:00am 21.8 SE 9 11 1014.0 - 3.2 - - - - - - -
04/01:30am 22.4 SE 3 5 1013.7 - 3.2 - - 10 - - - -
04/01:00am 24.2 WNW 9 13 1013.3 - 3.2 - - 10 - - - -
04/12:30am 24.3 WNW 11 15 1013.5 - 3.2 - - 10 - - - -
04/12:00am 24.0 WNW 11 17 1013.4 - 3.2 - Mostly clear 10 - - - -
 
Date/Time
EST
Temp
°C
Wind Pressure Rain since
9am
mm
Weather Cloud Vis
km
Sea
Height
m
Swell
Dir  Spd
kts
Gust
kts
hPa Trend Height
m
Period
s
Dir
03/11:30pm 23.5 WNW 10 17 1014.1 - 3.2 - - - - - - -
03/11:00pm 23.0 WNW 10 14 1014.1 - 3.2 - - - - - - -
03/10:30pm 22.9 WNW 11 16 1015.0 - 3.2 - - - - - - -
03/10:00pm 23.0 NW 10 15 1015.3 - 3.2 - - - - - - -
03/09:30pm 22.9 NW 9 11 1015.6 - 3.2 - Partly cloudy - - - - -
03/09:04pm 23.5 E 9 18 1014.5 - 3.0 - Partly cloudy - - - - -
03/09:00pm 23.4 SSE 7 11 1016.7 - 3.0 Thunderstorm Cloudy - - - - -
03/08:33pm 23.7 ESE 11 17 1017.8 - 3.0 - Partly cloudy - - - - -
03/08:30pm 23.8 ESE 11 17 1016.2 - 2.8 - Partly cloudy - - - - -
03/08:25pm 23.7 SSW 10 21 1016.9 - 2.2 - Partly cloudy - - - - -
03/08:18pm 23.7 WSW 15 22 1019.1 - 2.0 - Partly cloudy - - - - -
03/08:10pm 23.3 NW 10 16 1017.5 - 2.0 - - - - - - -
03/08:00pm 23.2 N 8 11 1015.1 - 2.0 - - - - - - -
03/07:30pm 23.2 NE 13 23 1014.8 - 2.0 - Partly cloudy - - - - -
03/07:27pm 23.4 NE 17 25 1014.5 - 1.8 - Partly cloudy - - - - -
03/07:17pm 23.6 NE 15 21 1013.8 - 1.8 - Partly cloudy - - - - -
03/07:10pm 23.8 NNE 10 15 1016.0 - 1.8 - Partly cloudy - - - - -
03/07:00pm 23.7 NW 5 6 1018.0 - 1.6 - Partly cloudy - - - - -
03/06:41pm 23.8 W 10 14 1018.1 - 0.2 - Partly cloudy - - - - -
03/06:30pm 23.9 NNE 9 12 1016.1 - 0.2 - Partly cloudy - - - - -
03/06:00pm 24.3 N 3 6 1015.5 - 0.2 Rain Cloudy - - - - -
03/05:49pm 24.6 SW 2 5 1015.2 - 0.0 - Partly cloudy - - - - -
03/05:39pm 24.6 SW 10 19 1014.5 - 0.0 - Partly cloudy - - - - -
03/05:32pm 24.5 W 10 19 1014.8 - 0.0 - Partly cloudy - - - - -
03/05:30pm 24.4 WNW 10 19 1014.8 - 0.0 - Partly cloudy - - - - -
03/05:22pm 24.2 NNW 11 15 1013.3 - 0.0 - Partly cloudy - - - - -
03/05:04pm 24.1 NNW 10 17 1012.6 - 0.0 - Partly cloudy - - - - -
03/05:00pm 24.1 NNW 11 18 1012.6 - 0.0 - Partly cloudy - - - - -
03/04:54pm 24.1 NNW 12 18 1012.4 - 0.0 - Partly cloudy - - - - -
03/04:30pm 23.5 N 11 14 1011.7 - 0.0 - Partly cloudy - - - - -
03/04:00pm 23.5 N 10 15 1011.9 - 0.0 - - - - - - -
03/03:30pm 23.6 N 11 14 1011.3 - 0.0 - - - - - - -
03/03:23pm 23.5 NNE 11 15 1011.6 - 0.0 - - - - - - -
03/03:13pm 23.7 N 14 18 1011.1 - 0.0 - - - - - - -
03/03:00pm 23.9 N 15 19 1011.1 - 0.0 - Mostly clear - - - - -
03/02:30pm 25.0 N 15 18 1012.1 - 0.0 - - - - - - -
03/02:00pm 26.4 N 16 23 1012.1 - 0.0 - - 10 - - - -
03/01:30pm 26.9 N 15 20 1012.5 - 0.0 - - 10 - - - -
03/01:00pm 27.0 N 16 20 1012.7 - 0.0 - - 10 - - - -
03/12:30pm 27.0 N 16 21 1013.1 - 0.0 - - - - - - -
03/12:00pm 26.3 N 18 24 1013.3 - 0.0 - - - - - - -
03/11:30am 27.2 N 17 22 1013.6 - 0.0 - - - - - - -
03/11:00am 26.6 N 16 21 1013.9 - 0.0 - Partly cloudy 10 - - - -
03/10:30am 26.8 N 15 22 1014.3 - 0.0 - Cloudy 10 - - - -
03/10:00am 25.7 N 14 17 1014.7 - 0.0 - Cloudy 10 - - - -
03/09:30am 25.7 N 13 16 1015.0 - 0.0 - Cloudy - - - - -
03/09:00am 25.4 N 13 16 1015.2 - 0.2 - Cloudy - - - - -
03/08:30am 25.8 N 12 15 1014.9 - 0.2 - Cloudy - - - - -
03/08:00am 24.6 NNW 9 11 1014.9 - 0.2 - Cloudy - - - - -
03/07:30am 23.7 NNW 7 11 1014.9 - 0.2 - Cloudy - - - - -
03/07:00am 23.1 N 7 10 1014.9 - 0.2 - Cloudy - - - - -
03/06:50am 22.9 N 7 9 1014.8 - 0.2 - Cloudy - - - - -
03/06:30am 22.7 N 8 10 1014.5 - 0.2 - Partly cloudy - - - - -
03/06:00am 22.4 N 9 12 1014.1 - 0.2 - Cloudy - - - - -
03/05:30am 22.4 N 7 9 1013.6 - 0.2 - Cloudy - - - - -
03/05:00am 22.5 N 10 13 1013.3 - 0.2 - Cloudy - - - - -
03/04:30am 22.5 N 8 11 1012.9 - 0.2 - Cloudy - - - - -
03/04:00am 22.4 N 9 12 1012.4 - 0.2 - Cloudy - - - - -
03/03:30am 22.4 N 9 12 1012.1 - 0.2 - Cloudy - - - - -
03/03:00am 22.5 N 8 11 1012.0 - 0.2 - Cloudy - - - - -
03/02:30am 22.5 N 7 9 1012.2 - 0.2 - Cloudy - - - - -
03/02:00am 22.8 N 7 9 1012.5 - 0.2 - Cloudy - - - - -
03/01:30am 22.7 N 8 10 1012.6 - 0.2 - Cloudy - - - - -
03/01:00am 22.5 N 8 11 1012.7 - 0.2 - Cloudy - - - - -
03/12:30am 22.6 N 7 8 1012.9 - 0.2 - Cloudy - - - - -
03/12:00am 22.6 N 9 11 1013.2 - 0.2 - Cloudy - - - - -
 
Date/Time
EST
Temp
°C
Wind Pressure Rain since
9am
mm
Weather Cloud Vis
km
Sea
Height
m
Swell
Dir  Spd
kts
Gust
kts
hPa Trend Height
m
Period
s
Dir
02/11:54pm 22.7 N 9 11 1013.2 - 0.2 - Cloudy - - - - -
02/11:30pm 22.6 N 9 11 1013.2 - 0.2 - Cloudy - - - - -
02/11:00pm 22.6 N 9 11 1013.3 - 0.2 - Partly cloudy - - - - -
02/10:30pm 22.7 N 10 13 1013.3 - 0.2 - - - - - - -
02/10:00pm 22.8 N 10 13 1013.2 - 0.2 - - - - - - -
02/09:30pm 23.1 N 11 14 1013.0 - 0.2 - - - - - - -
02/09:00pm 22.9 N 12 16 1012.4 - 0.2 Thunderstorm Partly cloudy - - - - -
02/08:30pm 23.7 N 13 18 1012.1 - 0.2 - Partly cloudy - - - - -
02/08:00pm 22.9 N 13 16 1012.7 - 0.2 - - - - - - -
02/07:30pm 22.6 N 14 19 1011.5 - 0.2 - Partly cloudy - - - - -
02/07:00pm 23.2 N 9 12 1011.9 - 0.0 - - - - - - -
02/06:30pm 23.1 N 12 14 1011.2 - 0.0 - - - - - - -
02/06:00pm 23.0 N 12 14 1010.7 - 0.0 - Partly cloudy - - - - -
02/05:30pm 23.7 N 13 19 1010.2 - 0.0 - - - - - - -
02/05:00pm 24.3 N 14 19 1009.9 - 0.0 - - - - - - -
02/04:30pm 24.7 N 15 20 1009.5 - 0.0 - - - - - - -
02/04:00pm 25.4 N 15 19 1009.3 - 0.0 - - - - - - -
02/03:30pm 25.9 N 16 20 1009.2 - 0.0 - - - - - - -
02/03:00pm 25.7 N 17 24 1009.3 - 0.0 - - - - - - -
02/02:30pm 26.4 N 17 22 1009.5 - 0.0 - - - - - - -
02/02:00pm 25.9 N 18 23 1009.7 - 0.0 - - - - - - -
02/01:30pm 25.6 N 18 23 1010.0 - 0.0 - - - - - - -
02/01:00pm 25.6 N 18 23 1009.9 - 0.0 - - - - - - -
02/12:30pm 26.2 N 17 23 1010.1 - 0.0 - - - - - - -
02/12:00pm 26.1 N 17 22 1010.2 - 0.0 - Mostly clear 10 - - - -
02/11:30am 25.9 NNE 16 22 1010.6 - 0.0 - - 10 - - - -
02/11:00am 25.7 NNE 16 20 1010.9 - 0.0 - - 10 - - - -
02/10:30am 25.8 NNE 15 19 1011.2 - 0.0 - - 10 - - - -
02/10:00am 25.4 N 16 21 1011.2 - 0.0 - - 10 - - - -
02/09:30am 25.3 N 16 21 1011.4 - 0.0 - - 10 - - - -
02/09:00am 25.6 N 16 20 1011.6 - 2.4 - - 10 - - - -
02/08:30am 25.3 N 15 19 1011.8 - 2.4 - - 10 - - - -
02/08:00am 23.9 N 15 18 1011.6 - 2.4 - - 10 - - - -
02/07:30am 24.8 N 13 17 1011.6 - 2.4 - - 10 - - - -
02/07:00am 24.1 NNW 14 19 1011.4 - 2.4 - - 10 - - - -
02/06:30am 23.5 NNW 12 18 1011.1 - 2.4 - - - - - - -
02/06:00am 22.9 NNW 11 17 1010.9 - 2.4 - - - - - - -
02/05:30am 22.4 NNW 10 16 1010.9 - 2.4 - - - - - - -
02/05:00am 21.8 NW 9 13 1010.7 - 2.4 - - - - - - -
02/04:30am 21.9 NW 9 13 1010.4 - 2.4 - - - - - - -
02/04:00am 22.1 NNW 9 14 1010.2 - 2.4 - - - - - - -
02/03:30am 22.2 NW 10 15 1010.1 - 2.4 - - - - - - -
02/03:00am 22.0 NNW 8 12 1009.8 - 2.4 - - - - - - -
02/02:30am 22.3 NW 8 12 1009.7 - 2.4 - - - - - - -
02/02:00am 22.4 NW 8 11 1009.7 - 2.4 - - - - - - -
02/01:30am 22.4 NW 9 13 1010.0 - 2.4 - - - - - - -
02/01:00am 22.4 NNW 8 12 1010.1 - 2.4 - - - - - - -
02/12:30am 22.3 NW 8 12 1010.4 - 2.4 - - - - - - -
02/12:00am 22.1 NW 7 9 1010.7 - 2.4 - - - - - - -
 
Date/Time
EST
Temp
°C
Wind Pressure Rain since
9am
mm
Weather Cloud Vis
km
Sea
Height
m
Swell
Dir  Spd
kts
Gust
kts
hPa Trend Height
m
Period
s
Dir
01/11:30pm 22.4 NW 8 11 1010.9 - 2.4 - - - - - - -
01/11:00pm 22.6 NW 9 12 1011.2 - 2.4 - Partly cloudy - - - - -
01/10:30pm 22.9 NW 10 14 1011.4 - 2.4 - Cloudy - - - - -
01/10:00pm 22.9 NW 11 15 1011.6 - 2.4 - Partly cloudy - - - - -
01/09:30pm 22.6 NNW 11 15 1011.7 - 2.4 - - - - - - -
01/09:00pm 22.6 NNW 11 16 1011.7 - 2.4 - Cloudy - - - - -
01/08:30pm 22.2 NW 8 11 1011.6 - 2.4 - - - - - - -
01/08:00pm 22.3 NNW 10 14 1011.3 - 2.4 - - - - - - -
01/07:30pm 22.5 NNW 9 13 1011.1 - 2.4 - Partly cloudy - - - - -
01/07:00pm 22.3 NNW 10 14 1010.7 - 2.4 - Partly cloudy - - - - -
01/06:30pm 22.0 N 11 17 1010.0 - 2.4 - Partly cloudy - - - - -

Other Formats:

Comma delimited format used in spreadsheet applications
http://www.bom.gov.au/fwo/IDQ60701/IDQ60701.94592.axf

JavaScript Object Notation format (JSON) in row-major order
http://www.bom.gov.au/fwo/IDQ60701/IDQ60701.94592.json